Weather at Eastern WV Regional Airport/Shepherd Field

Public forecast

Using degrees Fahrenheit for public forecast. Weather courtesy of forecast.io.

Current aviation weather report (METAR) for Eastern WV Regional Airport/Shepherd Field

Retrieved 2021/03/04 04:53 UTC (49 minutes ago):

KMRB 040453Z AUTO 17003KT 10SM SCT070 BKN085 08/M06 A2987 RMK AO2 SLP117 T00831056 401501067

Aviation forecast (TAF) for Eastern WV Regional Airport/Shepherd Field

Retrieved 2021-03-04 00:42 UTC (5 hours ago):

TAF KMRB 032340Z 0400/0424 26009KT P6SM SKC FM040800 32007KT P6SM SCT070 FM041400 32013G21KT P6SM SCT035 FM041800 32015G26KT P6SM BKN045